Time;durP1;ratioP1;P1;durP2;ratioP2;P2;SDS_P1;SDS_P2;PMS_P1;PMS_P2;Temp;Humidity;BMP_temperature;BMP_pressure;BME280_temperature;BME280_humidity;BME280_pressure;Samples;Min_cycle;Max_cycle;Signal;HPM_P1;HPM_P2
2023/02/21 02:14:57;;;;;;;;;58.33;48.00;;;;;4.75;100.00;101951.94;5037558;28;45371;-80
2023/02/21 02:17:35;;;;;;;;;67.50;48.00;;;;;4.75;100.00;101951.06;5019361;28;47408;-80
2023/02/21 02:20:18;;;;;;;;;54.00;44.75;;;;;4.74;100.00;101952.78;5036580;28;45348;-79
2023/02/21 02:22:55;;;;;;;;;60.25;46.25;;;;;4.74;100.00;101941.63;5037460;28;45510;-81
2023/02/21 02:26:07;;;;;;;;;66.25;49.75;;;;;4.69;100.00;101936.38;5036249;28;45337;-81
2023/02/21 02:28:51;;;;;;;;;64.00;49.50;;;;;4.70;100.00;101943.28;4955661;28;46221;-80
2023/02/21 02:31:38;;;;;;;;;64.25;46.25;;;;;4.67;100.00;101940.66;4955593;28;45440;-80
2023/02/21 02:34:34;;;;;;;;;65.25;48.25;;;;;4.66;100.00;101931.16;4955813;28;45396;-80
2023/02/21 02:37:10;;;;;;;;;57.00;47.25;;;;;4.67;100.00;101940.66;4956467;28;45546;-80
2023/02/21 02:40:15;;;;;;;;;59.25;46.75;;;;;4.62;100.00;101924.22;4939054;28;46259;-80
2023/02/21 02:42:50;;;;;;;;;65.25;50.25;;;;;4.63;100.00;101926.84;4942132;28;45455;-80
2023/02/21 02:45:37;;;;;;;;;67.50;48.25;;;;;4.63;100.00;101925.97;4939096;28;45635;-80
2023/02/21 02:48:11;;;;;;;;;58.75;42.75;;;;;4.58;100.00;101923.31;4955605;28;45606;-80
2023/02/21 02:50:38;;;;;;;;;55.25;40.75;;;;;4.58;100.00;101920.75;4954787;28;45714;-80
2023/02/21 02:53:04;;;;;;;;;66.50;49.75;;;;;4.58;100.00;101922.47;4938753;28;45982;-80
2023/02/21 02:55:49;;;;;;;;;58.25;45.00;;;;;4.52;100.00;101912.06;4954329;28;61406;-80
2023/02/21 02:58:16;;;;;;;;;55.50;44.00;;;;;4.47;100.00;101907.69;4938974;28;45580;-80
2023/02/21 03:00:45;;;;;;;;;60.00;44.00;;;;;4.50;100.00;101911.19;4955261;28;47430;-80
2023/02/21 03:03:21;;;;;;;;;65.50;44.25;;;;;4.52;100.00;101912.91;4954967;28;46002;-80
2023/02/21 03:06:01;;;;;;;;;50.25;37.75;;;;;4.50;100.00;101913.75;4988602;28;45448;-80
2023/02/21 03:08:39;;;;;;;;;50.75;40.25;;;;;4.46;100.00;101902.53;5015895;28;45250;-80
2023/02/21 03:11:17;;;;;;;;;54.50;38.25;;;;;4.49;100.00;101907.72;4998001;28;46426;-80
2023/02/21 03:13:50;;;;;;;;;59.25;41.00;;;;;4.48;100.00;101903.41;5016038;28;45417;-80
2023/02/21 03:16:23;;;;;;;;;56.25;43.25;;;;;4.45;100.00;101896.47;4998220;28;45588;-80
2023/02/21 03:18:53;;;;;;;;;57.50;41.25;;;;;4.49;100.00;101893.97;5015778;28;45363;-80
2023/02/21 03:21:30;;;;;;;;;37.25;33.25;;;;;4.50;100.00;101895.72;4998137;28;45533;-80
2023/02/21 03:23:58;;;;;;;;;67.25;44.50;;;;;4.47;100.00;101902.53;5015420;28;45356;-81
2023/02/21 03:26:26;;;;;;;;;57.25;44.75;;;;;4.49;100.00;101899.13;4998041;28;45362;-82
2023/02/21 03:28:53;;;;;;;;;60.75;44.75;;;;;4.50;100.00;101898.28;4998250;28;45420;-81
2023/02/21 03:31:20;;;;;;;;;75.50;56.50;;;;;4.51;100.00;101892.25;5015972;28;46535;-81
2023/02/21 03:33:45;;;;;;;;;68.75;52.75;;;;;4.55;100.00;101888.88;5018060;28;45857;-81
2023/02/21 03:36:11;;;;;;;;;72.00;51.25;;;;;4.52;100.00;101886.28;5017870;28;45386;-81
2023/02/21 03:38:36;;;;;;;;;66.50;51.25;;;;;4.51;100.00;101890.53;5020351;28;45333;-82
2023/02/21 03:41:02;;;;;;;;;76.75;54.25;;;;;4.50;100.00;101898.28;5021563;28;46280;-81
2023/02/21 03:43:27;;;;;;;;;70.50;53.75;;;;;4.45;100.00;101881.00;5044988;28;52382;-81
2023/02/21 03:45:53;;;;;;;;;79.50;56.50;;;;;4.47;100.00;101881.91;5050021;28;63072;-81
2023/02/21 03:48:18;;;;;;;;;86.75;59.50;;;;;4.47;100.00;101891.34;5039333;28;45234;-81
2023/02/21 03:50:44;;;;;;;;;84.00;59.25;;;;;4.43;100.00;101892.16;5021383;28;46412;-81
2023/02/21 03:53:09;;;;;;;;;75.50;59.00;;;;;4.39;100.00;101886.09;5021533;28;45447;-81
2023/02/21 03:55:35;;;;;;;;;94.50;64.50;;;;;4.40;100.00;101882.69;5039697;28;45433;-82
2023/02/21 03:58:00;;;;;;;;;73.50;51.25;;;;;4.40;100.00;101881.78;5038520;28;64430;-81
2023/02/21 04:00:27;;;;;;;;;78.00;56.25;;;;;4.38;100.00;101871.47;5039142;28;47444;-81
2023/02/21 04:02:52;;;;;;;;;88.33;58.00;;;;;4.39;100.00;101874.91;5019715;28;70378;-81
2023/02/21 04:05:17;;;;;;;;;83.75;63.00;;;;;4.35;100.00;101873.16;5038027;28;63350;-81
2023/02/21 04:07:43;;;;;;;;;81.25;57.50;;;;;4.32;100.00;101875.66;5037972;28;63267;-81
2023/02/21 04:10:08;;;;;;;;;90.50;61.25;;;;;4.27;100.00;101865.28;5021106;28;69310;-81
2023/02/21 04:12:33;;;;;;;;;77.25;57.00;;;;;4.29;100.00;101867.88;5021444;28;45494;-80
2023/02/21 04:14:59;;;;;;;;;85.25;59.00;;;;;4.24;100.00;101860.09;5037839;28;62143;-81
2023/02/21 04:17:24;;;;;;;;;91.00;64.75;;;;;4.21;100.00;101848.00;5038224;28;66242;-81
2023/02/21 04:19:51;;;;;;;;;77.50;58.75;;;;;4.28;100.00;101861.00;5038954;28;47185;-80
2023/02/21 04:22:16;;;;;;;;;81.75;59.00;;;;;4.25;100.00;101862.69;5039330;28;45295;-81
2023/02/21 04:24:41;;;;;;;;;85.50;60.25;;;;;4.21;100.00;101866.03;5038799;28;45322;-81
2023/02/21 04:27:07;;;;;;;;;79.25;58.75;;;;;4.19;100.00;101865.16;5020052;28;58253;-80
2023/02/21 04:29:32;;;;;;;;;80.25;57.50;;;;;4.12;100.00;101862.47;5038392;28;45550;-81
2023/02/21 04:31:58;;;;;;;;;80.50;59.50;;;;;4.12;100.00;101867.63;5037292;28;65233;-79
2023/02/21 04:34:23;;;;;;;;;84.75;62.75;;;;;4.06;100.00;101858.09;5020748;28;45417;-79
2023/02/21 04:36:49;;;;;;;;;83.50;61.25;;;;;4.06;100.00;101858.09;5037581;28;60362;-80
2023/02/21 04:39:14;;;;;;;;;82.25;61.00;;;;;4.02;100.00;101869.19;5020662;28;46654;-79
2023/02/21 04:41:40;;;;;;;;;82.25;60.50;;;;;4.05;100.00;101875.25;5020192;28;48125;-80
2023/02/21 04:44:05;;;;;;;;;85.50;61.25;;;;;4.08;100.00;101869.28;5038577;28;45594;-80
2023/02/21 04:46:31;;;;;;;;;81.00;57.75;;;;;4.08;100.00;101867.56;5037016;28;62083;-79
2023/02/21 04:48:56;;;;;;;;;73.50;55.25;;;;;4.03;100.00;101853.75;5037111;28;46562;-79
2023/02/21 04:51:23;;;;;;;;;84.25;60.50;;;;;4.03;100.00;101864.06;5037451;28;55337;-79
2023/02/21 04:53:49;;;;;;;;;77.50;59.00;;;;;4.03;100.00;101866.66;5038211;28;45395;-79
2023/02/21 04:56:17;;;;;;;;;85.25;60.75;;;;;3.92;100.00;101855.28;5038848;28;45320;-80
2023/02/21 04:58:43;;;;;;;;;83.00;57.25;;;;;3.98;100.00;101860.53;5038204;28;46074;-79
2023/02/21 05:01:10;;;;;;;;;80.75;55.75;;;;;3.94;100.00;101860.44;5038126;28;45429;-79
2023/02/21 05:03:36;;;;;;;;;79.25;59.00;;;;;3.96;100.00;101867.38;5038011;28;45356;-79
2023/02/21 05:06:01;;;;;;;;;76.50;59.75;;;;;3.92;100.00;101862.13;5018933;28;61372;-79
2023/02/21 05:08:26;;;;;;;;;75.00;57.25;;;;;3.89;100.00;101870.69;5037098;28;69784;-79
2023/02/21 05:10:53;;;;;;;;;75.75;56.50;;;;;3.92;100.00;101864.72;5037614;28;45402;-79
2023/02/21 05:13:19;;;;;;;;;76.25;57.75;;;;;3.88;100.00;101869.84;5019990;28;45537;-80
2023/02/21 05:15:45;;;;;;;;;81.75;56.25;;;;;3.87;100.00;101867.22;5037383;28;45245;-79
2023/02/21 05:18:10;;;;;;;;;77.25;56.75;;;;;3.81;100.00;101856.84;5037252;28;45320;-79
2023/02/21 05:20:35;;;;;;;;;73.00;56.00;;;;;3.84;100.00;101864.59;5037965;28;45418;-79
2023/02/21 05:23:01;;;;;;;;;75.25;56.25;;;;;3.84;100.00;101864.59;5036959;28;63289;-81
2023/02/21 05:25:26;;;;;;;;;35.00;18.75;;;;;3.85;100.00;101869.78;5036798;28;52423;-81
2023/02/21 05:27:52;;;;;;;;;77.50;51.00;;;;;3.85;100.00;101874.06;5036748;28;61249;-80
2023/02/21 05:30:22;;;;;;;;;80.25;53.25;;;;;3.85;100.00;101867.19;5019092;28;45929;-80
2023/02/21 05:32:48;;;;;;;;;73.50;52.25;;;;;3.83;100.00;101856.00;5030901;28;45426;-79
2023/02/21 05:35:15;;;;;;;;;73.75;51.75;;;;;3.84;100.00;101851.72;5021654;28;45281;-79
2023/02/21 05:37:40;;;;;;;;;66.25;49.50;;;;;3.82;100.00;101849.09;5019948;28;45584;-79
2023/02/21 05:40:06;;;;;;;;;71.50;50.00;;;;;3.78;100.00;101855.03;5019690;28;47193;-79
2023/02/21 05:42:32;;;;;;;;;65.25;48.00;;;;;3.79;100.00;101854.22;5037772;28;45375;-79
2023/02/21 05:44:58;;;;;;;;;69.75;50.75;;;;;3.70;100.00;101838.63;5018977;28;55299;-79
2023/02/21 05:47:23;;;;;;;;;71.25;51.75;;;;;3.74;100.00;101837.81;5019751;28;46349;-79
2023/02/21 05:49:48;;;;;;;;;64.00;47.25;;;;;3.76;100.00;101832.69;5036597;28;67558;-78
2023/02/21 05:52:15;;;;;;;;;75.00;53.25;;;;;3.77;100.00;101829.25;5036596;28;63488;-79
2023/02/21 05:54:40;;;;;;;;;68.25;48.50;;;;;3.68;100.00;101820.56;5037238;28;45245;-80
2023/02/21 05:57:06;;;;;;;;;65.00;46.75;;;;;3.71;100.00;101822.31;5036284;28;68803;-79
2023/02/21 05:59:31;;;;;;;;;64.00;46.75;;;;;3.70;100.00;101818.00;5018681;28;45563;-79
2023/02/21 06:01:57;;;;;;;;;64.50;45.50;;;;;3.70;100.00;101815.44;5036786;28;45573;-79
2023/02/21 06:04:22;;;;;;;;;74.50;48.25;;;;;3.62;100.00;101815.31;5036329;28;45334;-79
2023/02/21 06:06:48;;;;;;;;;61.75;45.50;;;;;3.64;100.00;101820.47;5036595;28;46221;-79
2023/02/21 06:09:14;;;;;;;;;60.00;47.50;;;;;3.58;100.00;101820.38;5036746;28;45355;-79
2023/02/21 06:11:39;;;;;;;;;65.00;42.75;;;;;3.54;100.00;101814.28;5036676;28;55341;-79
2023/02/21 06:14:08;;;;;;;;;59.50;48.00;;;;;3.53;100.00;101822.00;5037399;28;45471;-79
2023/02/21 06:16:35;;;;;;;;;71.75;51.50;;;;;3.49;100.00;101823.63;5037263;28;46622;-79
2023/02/21 06:19:01;;;;;;;;;56.25;44.50;;;;;3.48;100.00;101822.78;5036778;28;45391;-80
2023/02/21 06:21:27;;;;;;;;;70.25;50.50;;;;;3.47;100.00;101823.63;5003323;28;45392;-80
2023/02/21 06:23:52;;;;;;;;;58.00;49.50;;;;;3.48;100.00;101816.78;5035700;28;66110;-80
2023/02/21 06:26:18;;;;;;;;;54.00;36.50;;;;;3.49;100.00;101816.81;5036750;28;45434;-80
2023/02/21 06:28:44;;;;;;;;;74.75;48.25;;;;;3.49;100.00;101809.09;5018120;28;45323;-80
2023/02/21 06:31:09;;;;;;;;;47.75;32.50;;;;;3.49;100.00;101818.50;5019071;28;45371;-80
2023/02/21 06:33:34;;;;;;;;;67.25;50.25;;;;;3.42;100.00;101796.94;5036000;28;62842;-80
2023/02/21 06:36:10;;;;;;;;;67.00;46.50;;;;;3.43;100.00;101801.22;5018679;28;45334;-86
2023/02/21 06:38:35;;;;;;;;;65.75;49.00;;;;;3.40;100.00;101796.06;5018928;28;45758;-84
2023/02/21 06:41:07;;;;;;;;;66.50;48.50;;;;;3.45;100.00;101799.53;5001433;28;45444;-84
2023/02/21 06:43:34;;;;;;;;;69.75;51.25;;;;;3.41;100.00;101787.47;5018165;28;45621;-84
2023/02/21 06:46:00;;;;;;;;;67.25;48.75;;;;;3.40;100.00;101785.75;5035796;28;45479;-84
2023/02/21 06:48:25;;;;;;;;;65.50;52.00;;;;;3.36;100.00;101778.81;5035235;28;65470;-84
2023/02/21 06:50:51;;;;;;;;;66.50;45.75;;;;;3.32;100.00;101776.16;5018068;28;45387;-84
2023/02/21 06:53:16;;;;;;;;;64.00;49.00;;;;;3.36;100.00;101788.22;5035572;28;48497;-83
2023/02/21 06:55:41;;;;;;;;;66.75;48.75;;;;;3.33;100.00;101783.06;5000561;28;46991;-84
2023/02/21 06:58:07;;;;;;;;;60.25;48.75;;;;;3.23;100.00;101759.72;5035771;28;47540;-84
2023/02/21 07:00:32;;;;;;;;;65.50;43.00;;;;;3.30;100.00;101783.84;5035717;28;45590;-84
2023/02/21 07:02:57;;;;;;;;;58.25;45.00;;;;;3.28;100.00;101773.53;5018128;28;45498;-83
2023/02/21 07:05:23;;;;;;;;;71.25;45.75;;;;;3.30;100.00;101773.56;5034999;28;60074;-83
2023/02/21 07:07:49;;;;;;;;;64.50;47.50;;;;;3.34;100.00;101772.75;5017923;28;45479;-85
2023/02/21 07:10:14;;;;;;;;;66.75;51.25;;;;;3.37;100.00;101770.25;5017022;28;51915;-83
2023/02/21 07:12:39;;;;;;;;;69.00;49.00;;;;;3.37;100.00;101779.69;5017067;28;45401;-84
2023/02/21 07:15:06;;;;;;;;;70.50;46.25;;;;;3.40;100.00;101772.00;5018144;28;46529;-85
2023/02/21 07:17:32;;;;;;;;;76.50;51.00;;;;;3.36;100.00;101771.09;5036119;28;45937;-83
2023/02/21 07:19:57;;;;;;;;;66.25;46.00;;;;;3.43;100.00;101777.22;5017240;28;52429;-82
2023/02/21 07:22:24;;;;;;;;;70.00;50.75;;;;;3.42;100.00;101768.63;5044336;28;62716;-82
2023/02/21 07:24:53;;;;;;;;;63.75;48.00;;;;;3.44;100.00;101771.22;5022905;28;45482;-82
2023/02/21 07:27:19;;;;;;;;;68.75;48.00;;;;;3.49;100.00;101778.19;5017702;28;45985;-83
2023/02/21 07:29:48;;;;;;;;;73.75;49.00;;;;;3.49;100.00;101767.00;5003538;28;45460;-83
2023/02/21 07:32:16;;;;;;;;;64.75;49.50;;;;;3.56;100.00;101771.41;5036230;28;45375;-83
2023/02/21 07:34:41;;;;;;;;;73.00;49.50;;;;;3.60;100.00;101774.91;5035493;28;45385;-83
2023/02/21 07:37:06;;;;;;;;;65.00;48.00;;;;;3.62;100.00;101770.66;5018096;28;45473;-83
2023/02/21 07:39:32;;;;;;;;;62.50;45.00;;;;;3.73;100.00;101781.13;5017211;28;54265;-84
2023/02/21 07:41:57;;;;;;;;;66.75;47.25;;;;;3.74;100.00;101770.00;5017747;28;45485;-84
2023/02/21 07:44:22;;;;;;;;;58.75;48.75;;;;;3.84;100.00;101779.59;5017211;28;62438;-83
2023/02/21 07:46:48;;;;;;;;;59.50;42.75;;;;;3.86;100.00;101768.50;5017329;28;48187;-84
2023/02/21 07:49:15;;;;;;;;;69.00;49.00;;;;;3.97;100.00;101778.94;5017199;28;45312;-83
2023/02/21 07:51:41;;;;;;;;;66.00;52.00;;;;;4.03;100.00;101770.41;5015420;28;45283;-84
2023/02/21 07:54:06;;;;;;;;;65.25;48.50;;;;;4.08;100.00;101768.78;4997159;28;47601;-84
2023/02/21 07:56:31;;;;;;;;;68.50;49.75;;;;;4.16;100.00;101776.63;4978083;28;57720;-84
2023/02/21 07:58:57;;;;;;;;;63.25;45.00;;;;;4.27;100.00;101782.78;4978309;28;45335;-84
2023/02/21 08:01:24;;;;;;;;;62.00;47.25;;;;;4.36;100.00;101782.06;4977871;28;45329;-84
2023/02/21 08:03:49;;;;;;;;;60.75;42.00;;;;;4.40;100.00;101776.09;4995073;28;46352;-84
2023/02/21 08:06:15;;;;;;;;;71.00;50.25;;;;;4.51;100.00;101773.66;4995178;28;55861;-84
2023/02/21 08:08:40;;;;;;;;;67.00;46.75;;;;;4.59;100.00;101770.34;5001479;28;45907;-84
2023/02/21 08:11:05;;;;;;;;;62.00;49.00;;;;;4.68;100.00;101772.16;4986911;28;45308;-83
2023/02/21 08:13:31;;;;;;;;;70.25;47.00;;;;;4.71;100.00;101761.88;4974234;28;46876;-84
2023/02/21 08:15:56;;;;;;;;;50.25;42.00;;;;;4.76;100.00;101755.06;5017349;28;67579;-84
2023/02/21 08:19:15;;;;;;;;;72.75;50.75;;;;;4.88;100.00;101759.47;4996540;28;55338;-87
2023/02/21 08:21:11;;;;;;;;;63.25;48.00;;;;;4.86;100.00;101743.13;4971167;28;45311;-88
2023/02/21 08:23:36;;;;;;;;;68.75;50.25;;;;;4.87;100.00;101734.53;4986808;28;47038;-84
2023/02/21 08:26:05;;;;;;;;;49.25;42.00;;;;;5.09;100.00;101758.84;4983313;28;45461;-85
2023/02/21 08:28:30;;;;;;;;;63.75;46.50;;;;;5.10;100.00;101745.09;4997857;28;45547;-84
2023/02/21 08:30:56;;;;;;;;;63.50;46.00;;;;;5.19;100.00;101752.06;5018111;28;45541;-84
2023/02/21 08:33:22;;;;;;;;;62.00;45.00;;;;;5.29;100.00;101758.16;5005479;28;45454;-84
2023/02/21 08:35:47;;;;;;;;;56.50;47.75;;;;;5.31;100.00;101751.28;5018665;28;45237;-84
2023/02/21 08:38:15;;;;;;;;;71.00;51.50;;;;;5.37;100.00;101746.22;4999476;28;56098;-87
2023/02/21 08:41:17;;;;;;;;;61.25;46.25;;;;;5.47;100.00;101752.31;5014903;28;46680;-90
2023/02/21 08:43:42;;;;;;;;;69.25;52.00;;;;;5.51;100.00;101742.00;5037080;28;46865;-85
2023/02/21 08:46:17;;;;;;;;;73.00;49.25;;;;;5.56;100.00;101744.63;4991261;28;45282;-87
2023/02/21 08:48:46;;;;;;;;;76.00;50.25;;;;;5.65;100.00;101743.84;5000118;28;45510;-86
2023/02/21 08:51:17;;;;;;;;;64.75;49.50;;;;;5.87;100.00;101758.66;5001152;28;48061;-87
2023/02/21 08:53:43;;;;;;;;;67.00;51.75;;;;;5.86;100.00;101745.72;4979793;28;47543;-85
2023/02/21 08:56:08;;;;;;;;;64.00;45.25;;;;;5.93;100.00;101739.75;5000146;28;45395;-87
2023/02/21 08:58:33;;;;;;;;;73.25;48.25;;;;;6.08;100.00;101749.34;5002763;28;45360;-85
2023/02/21 09:01:12;;;;;;;;;73.50;55.00;;;;;6.20;100.00;101763.19;5007482;28;48108;-85
2023/02/21 09:03:38;;;;;;;;;71.00;48.25;;;;;6.29;100.00;101756.34;4997656;28;46712;-88
2023/02/21 09:06:12;;;;;;;;;71.75;54.00;;;;;6.31;100.00;101741.69;4966927;28;45733;-87
2023/02/21 09:08:43;;;;;;;;;62.25;44.50;;;;;6.42;100.00;101749.50;4976403;28;45302;-85
2023/02/21 09:11:16;;;;;;;;;74.50;52.75;;;;;6.46;100.00;101744.34;4985004;28;45496;-87
2023/02/21 09:13:41;;;;;;;;;79.00;53.75;;;;;6.54;100.00;101742.66;4981729;28;46048;-86
2023/02/21 09:16:36;;;;;;;;;72.50;57.50;;;;;6.75;100.00;101759.97;4981815;28;45770;-87
2023/02/21 09:19:05;;;;;;;;;77.25;55.25;;;;;6.83;100.00;101761.72;4996094;28;45386;-89
2023/02/21 09:21:31;;;;;;;;;67.25;52.75;;;;;6.88;100.00;101754.84;4991374;28;45482;-85
2023/02/21 09:24:01;;;;;;;;;75.00;56.50;;;;;6.92;100.00;101744.50;4995455;28;49262;-86
2023/02/21 09:26:30;;;;;;;;;81.00;63.25;;;;;7.01;100.00;101745.38;5005046;28;45799;-85
2023/02/21 09:28:56;;;;;;;;;74.25;54.00;;;;;7.16;100.00;101760.94;5022520;28;45378;-84
2023/02/21 09:31:22;;;;;;;;;77.25;55.25;;;;;7.12;100.00;101741.94;4998978;28;45391;-84
2023/02/21 09:33:47;;;;;;;;;73.25;55.00;;;;;7.26;100.00;101757.53;5022549;28;45544;-85
2023/02/21 09:36:13;;;;;;;;;81.75;59.25;;;;;7.35;100.00;101754.94;4979157;28;45341;-85
2023/02/21 09:38:41;;;;;;;;;74.25;54.75;;;;;7.40;100.00;101747.16;5003287;28;45363;-84
2023/02/21 09:41:10;;;;;;;;;66.50;52.75;;;;;7.44;100.00;101742.84;4991030;28;45517;-85
2023/02/21 09:43:38;;;;;;;;;77.00;54.25;;;;;7.55;100.00;101754.91;4997550;28;46365;-85
2023/02/21 09:46:43;;;;;;;;;68.50;52.25;;;;;7.69;100.00;101759.22;5013812;28;45447;-84
2023/02/21 09:49:14;;;;;;;;;77.75;53.00;;;;;7.74;100.00;101734.19;4925439;28;45439;-85
2023/02/21 09:51:41;;;;;;;;;76.00;53.00;;;;;7.80;100.00;101736.78;4945444;28;45548;-85
2023/02/21 09:54:22;;;;;;;;;79.25;59.50;;;;;7.91;100.00;101728.97;4934919;28;46216;-85
2023/02/21 09:56:47;;;;;;;;;77.25;59.25;;;;;8.00;100.00;101736.72;4916913;28;45875;-84
2023/02/21 09:59:13;;;;;;;;;79.00;56.75;;;;;8.11;100.00;101739.28;4927600;28;45603;-84
2023/02/21 10:01:49;;;;;;;;;71.75;56.00;;;;;8.22;100.00;101747.91;4919775;28;45471;-84
2023/02/21 10:04:18;;;;;;;;;79.00;58.00;;;;;8.35;100.00;101743.53;4934893;28;46259;-85
2023/02/21 10:06:47;;;;;;;;;81.75;56.50;;;;;8.43;100.00;101747.03;4932302;28;45816;-84
2023/02/21 10:09:28;;;;;;;;;74.00;55.50;;;;;8.54;100.00;101736.56;4932557;28;45420;-84
2023/02/21 10:12:32;;;;;;;;;80.00;59.25;;;;;8.66;100.00;101744.31;4935428;28;45750;-85
2023/02/21 10:15:19;;;;;;;;;81.50;61.50;;;;;8.78;100.00;101743.38;4922568;28;46935;-85
2023/02/21 10:18:01;;;;;;;;;86.00;60.75;;;;;8.87;100.00;101737.28;4916861;28;45414;-85
2023/02/21 10:20:34;;;;;;;;;75.00;55.25;;;;;9.00;100.00;101744.13;4933779;28;45481;-86
2023/02/21 10:23:01;;;;;;;;;84.00;58.25;;;;;9.12;100.00;101743.19;4943580;28;45422;-86
2023/02/21 10:25:30;;;;;;;;;78.50;59.00;;;;;9.25;100.00;101738.78;4959994;28;46819;-86
2023/02/21 10:27:58;;;;;;;;;78.75;57.25;;;;;9.36;100.00;101741.28;4979842;28;45610;-85
2023/02/21 10:30:33;;;;;;;;;78.75;60.50;;;;;9.42;100.00;101736.03;4976132;28;45343;-85
2023/02/21 10:32:59;;;;;;;;;77.75;57.00;;;;;9.53;100.00;101739.41;4975531;28;45390;-86
2023/02/21 10:35:24;;;;;;;;;75.50;57.00;;;;;9.67;100.00;101734.06;4975603;28;46573;-85
2023/02/21 10:37:52;;;;;;;;;86.00;61.00;;;;;9.80;100.00;101722.69;4991968;28;45569;-85
2023/02/21 10:40:36;;;;;;;;;82.00;61.75;;;;;9.96;100.00;101733.78;4978012;28;45294;-84
2023/02/21 10:43:27;;;;;;;;;77.75;58.25;;;;;10.13;100.00;101725.81;4992419;28;45444;-85
2023/02/21 10:46:04;;;;;;;;;71.75;55.50;;;;;10.32;100.00;101725.63;4978858;28;46506;-84
2023/02/21 10:48:34;;;;;;;;;78.75;57.25;;;;;10.49;100.00;101726.25;4993345;28;45976;-84
2023/02/21 10:51:07;;;;;;;;;80.25;56.50;;;;;10.70;100.00;101724.25;4995764;28;45366;-82
2023/02/21 10:53:35;;;;;;;;;78.50;57.00;;;;;10.89;100.00;101709.25;5011510;28;44790;-84
2023/02/21 10:56:19;;;;;;;;;81.00;58.50;;;;;11.14;100.00;101712.34;5002588;28;45379;-84
2023/02/21 10:58:53;;;;;;;;;76.75;55.75;;;;;11.27;100.00;101695.59;5006029;28;45375;-83
2023/02/21 11:01:25;;;;;;;;;84.00;61.25;;;;;11.60;100.00;101708.97;4980809;28;45460;-84
2023/02/21 11:03:52;;;;;;;;;75.75;53.50;;;;;11.79;100.00;101696.44;4987210;28;45530;-85
2023/02/21 11:06:24;;;;;;;;;73.00;54.75;;;;;11.98;100.00;101691.78;4995042;28;45406;-84
2023/02/21 11:08:49;;;;;;;;;80.00;58.00;;;;;12.13;100.00;101688.88;4998322;28;45377;-84
2023/02/21 11:11:15;;;;;;;;;80.75;58.25;;;;;12.42;100.00;101690.00;4981302;28;54513;-86
2023/02/21 11:13:40;;;;;;;;;71.50;55.25;;;;;12.70;100.00;101694.63;4997279;28;45304;-85
2023/02/21 11:16:17;;;;;;;;;75.75;55.00;;;;;13.03;100.00;101689.50;4996026;28;60732;-84
2023/02/21 11:18:43;;;;;;;;;78.00;55.50;;;;;13.42;100.00;101694.69;4985351;28;45520;-85
2023/02/21 11:21:13;;;;;;;;;76.00;55.25;;;;;13.74;100.00;101688.59;4988986;28;45843;-86
2023/02/21 11:23:53;;;;;;;;;67.50;54.25;;;;;14.08;100.00;101679.84;4991410;28;45667;-87
2023/02/21 11:26:18;;;;;;;;;71.75;53.00;;;;;14.45;100.00;101681.34;4969826;28;47365;-85
2023/02/21 11:28:45;;;;;;;;;74.75;53.25;;;;;14.80;100.00;101669.84;4989127;28;67899;-87
2023/02/21 11:31:15;;;;;;;;;73.00;53.00;;;;;15.17;100.00;101673.84;4977151;28;45443;-83
2023/02/21 11:33:49;;;;;;;;;71.75;52.75;;;;;15.56;100.00;101664.69;4980532;28;45691;-84
2023/02/21 11:36:18;;;;;;;;;73.75;52.75;;;;;16.16;100.00;101660.78;4977862;28;45375;-83
2023/02/21 11:38:58;;;;;;;;;66.50;52.25;;;;;16.52;100.00;101643.66;4983729;28;45890;-83
2023/02/21 11:41:49;;;;;;;;;72.00;52.75;;;;;16.89;100.00;101644.84;4986868;28;45427;-84
2023/02/21 11:44:23;;;;;;;;;74.25;53.25;;;;;16.99;100.00;101630.41;4983111;28;45358;-82
2023/02/21 11:46:54;;;;;;;;;68.75;51.25;;;;;17.29;99.02;101636.16;4991111;28;45576;-83
2023/02/21 11:49:36;;;;;;;;;66.50;51.00;;;;;17.86;96.87;101633.66;4992874;28;45567;-82
2023/02/21 11:52:07;;;;;;;;;69.75;51.00;;;;;18.22;97.45;101627.66;4993087;28;45320;-79
2023/02/21 11:54:32;;;;;;;;;71.50;52.00;;;;;18.62;96.17;101611.69;4982876;28;45572;-79
2023/02/21 11:57:05;;;;;;;;;65.00;51.75;;;;;19.41;95.61;101614.78;4984419;28;45478;-80
2023/02/21 11:59:34;;;;;;;;;65.50;50.75;;;;;20.22;94.41;101608.69;4994759;28;45973;-81
2023/02/21 12:01:59;;;;;;;;;68.75;50.25;;;;;21.07;90.76;101599.44;4997020;28;45453;-81
2023/02/21 12:04:50;;;;;;;;;68.67;51.00;;;;;21.97;88.32;101601.03;4990976;28;45641;-81
2023/02/21 12:07:28;;;;;;;;;62.50;48.25;;;;;22.69;87.20;101589.34;4955688;28;45551;-81
2023/02/21 12:10:22;;;;;;;;;64.00;47.50;;;;;23.55;84.21;101584.34;4922605;28;45427;-82
2023/02/21 12:12:56;;;;;;;;;65.00;47.75;;;;;24.07;81.27;101585.13;4949116;28;45542;-81
2023/02/21 12:15:53;;;;;;;;;64.50;44.50;;;;;24.34;79.61;101584.03;4948326;28;45442;-81
2023/02/21 12:18:40;;;;;;;;;64.25;48.50;;;;;24.41;76.66;101568.50;4939001;28;46169;-81
2023/02/21 12:21:53;;;;;;;;;58.50;43.25;;;;;24.60;75.65;101560.84;4939817;28;45500;-79
2023/02/21 12:24:29;;;;;;;;;61.75;47.00;;;;;25.47;74.06;101561.25;4946992;28;45389;-79
2023/02/21 12:27:11;;;;;;;;;57.50;43.50;;;;;26.53;71.14;101559.81;4953789;28;45480;-81
2023/02/21 12:29:36;;;;;;;;;58.00;43.25;;;;;27.48;69.52;101548.19;4953969;28;46987;-82
2023/02/21 12:32:26;;;;;;;;;57.00;44.00;;;;;28.71;67.54;101553.16;4944405;28;45420;-81
2023/02/21 12:35:06;;;;;;;;;63.75;47.00;;;;;30.06;65.77;101552.78;4951220;28;45552;-81
2023/02/21 12:37:49;;;;;;;;;57.75;43.25;;;;;31.52;61.95;101544.28;4957501;28;45508;-81
2023/02/21 12:40:22;;;;;;;;;55.00;43.25;;;;;32.53;57.15;101535.19;4938166;28;45795;-80
2023/02/21 12:43:09;;;;;;;;;54.50;40.00;;;;;33.16;52.38;101529.06;4956021;28;45471;-80
2023/02/21 12:45:51;;;;;;;;;50.25;39.50;;;;;33.41;49.25;101528.94;4991880;28;45475;-80
2023/02/21 12:48:34;;;;;;;;;55.50;43.25;;;;;33.59;48.36;101522.47;4980299;28;45382;-80
2023/02/21 12:51:07;;;;;;;;;47.50;37.75;;;;;33.66;45.50;101516.19;4979504;28;47375;-80
2023/02/21 12:53:53;;;;;;;;;50.00;38.75;;;;;33.47;43.68;101501.28;4976113;28;45921;-80
2023/02/21 12:56:43;;;;;;;;;51.00;39.25;;;;;33.75;42.70;101511.59;4982320;28;45380;-82
2023/02/21 12:59:56;;;;;;;;;53.25;40.25;;;;;33.76;40.83;101494.38;4993258;28;45522;-82
2023/02/21 13:03:07;;;;;;;;;51.75;39.00;;;;;33.88;39.90;101492.09;4955884;28;45492;-83
2023/02/21 13:05:41;;;;;;;;;53.75;40.75;;;;;34.31;40.03;101479.78;4911909;28;45389;-81
2023/02/21 13:08:21;;;;;;;;;52.50;37.00;;;;;34.71;38.44;101484.97;4916131;28;45701;-82
2023/02/21 13:11:01;;;;;;;;;48.25;38.25;;;;;34.77;36.79;101476.13;4904717;28;45578;-82
2023/02/21 13:13:31;;;;;;;;;50.00;37.25;;;;;35.12;38.81;101468.25;4916640;28;45378;-82
2023/02/21 13:16:00;;;;;;;;;51.00;38.50;;;;;35.46;35.32;101467.66;4913464;28;45431;-82
2023/02/21 13:18:58;;;;;;;;;50.50;38.00;;;;;35.48;35.42;101451.22;4917097;28;45465;-84
2023/02/21 13:21:51;;;;;;;;;46.25;33.25;;;;;34.92;35.06;101454.50;4913826;28;45394;-84
2023/02/21 13:24:28;;;;;;;;;48.50;37.00;;;;;34.82;34.89;101454.75;4891758;29;46443;-84
2023/02/21 13:27:21;;;;;;;;;46.50;35.00;;;;;35.19;35.20;101463.78;4905589;28;45459;-83
2023/02/21 13:29:48;;;;;;;;;41.25;33.00;;;;;35.37;34.13;101449.84;4915608;28;45620;-84
2023/02/21 13:32:18;;;;;;;;;39.00;31.00;;;;;35.39;34.10;101450.50;4916119;28;45568;-83
2023/02/21 13:34:48;;;;;;;;;39.00;32.00;;;;;35.36;34.63;101444.63;4895465;28;47499;-84
2023/02/21 13:37:24;;;;;;;;;29.00;27.75;;;;;35.16;34.31;101423.56;4975706;28;45539;-83
2023/02/21 13:40:08;;;;;;;;;33.50;30.75;;;;;35.21;32.93;101428.44;4994697;28;45349;-83
2023/02/21 13:42:36;;;;;;;;;33.75;28.75;;;;;35.09;31.88;101418.06;4976907;28;45451;-82